Flight Track Log - Related Links

Times and Time Zones

All times are in EDT time to prevent confusion due to time zone crossing. See the SWA864 flight status page for this flight to view local times or setup timezone preferences in your user account.

Time Position Orientation Groundspeed Altitude Reporting Facility
EDT Latitude Longitude Course Direction KTS MPH feet Rate Location/Type
Sun 01:46:26 PM 34.1161 -117.7681 301° West 233 268 7,100  Level Los Angeles Center
Sun 01:47:28 PM 34.1664 -117.8658 302° West 275 316 10,700 3,000 Climbing Los Angeles Center
Sun 01:48:30 PM 34.2150 -117.9597 302° West 317 365 13,300 3,000 Climbing Los Angeles Center
Sun 01:49:32 PM 34.2725 -118.0619 304° West 360 414 16,900 3,290 Climbing Los Angeles Center
Sun 01:50:34 PM 34.3339 -118.1619 307° West 370 426 20,100 2,976 Climbing Los Angeles Center
Sun 01:51:37 PM 34.4031 -118.2639 309° West 394 453 23,100 3,024 Climbing Los Angeles Center
Sun 01:52:39 PM 34.4894 -118.3811 312° West 393 452 26,400 2,516 Climbing Los Angeles Center
Sun 01:53:41 PM 34.5933 -118.4447 333° Northwest 418 481 28,300 1,790 Climbing Los Angeles Center
Sun 01:54:43 PM 34.7036 -118.5078 335° Northwest 437 503 30,100 1,984 Climbing Los Angeles Center
Sun 01:55:45 PM 34.8158 -118.5736 334° Northwest 444 511 32,400 2,129 Climbing Los Angeles Center
Sun 01:56:47 PM 34.9303 -118.6417 334° Northwest 439 505 34,500 1,742 Climbing Los Angeles Center
Sun 01:57:49 PM 35.0406 -118.7058 335° Northwest 438 504 36,000 720 Climbing Los Angeles Center
Sun 01:58:52 PM 35.1383 -118.7886 325° Northwest 431 496 36,000 672 Level Los Angeles Center
Sun 01:59:54 PM 35.2567 -118.8875 326° Northwest 431 496 37,400 968 Climbing Los Angeles Center
Sun 02:00:56 PM 35.3647 -118.9478 336° Northwest 428 493 38,000 290 Climbing Los Angeles Center
Sun 02:01:58 PM 35.4753 -119.0089 336° Northwest 432 497 38,000  Level Los Angeles Center
Sun 02:03:00 PM 35.5833 -119.0711 335° Northwest 432 497 38,000  Level Los Angeles Center
Sun 02:04:02 PM 35.6933 -119.1333 335° Northwest 432 497 38,000  Level Los Angeles Center
Sun 02:05:05 PM 35.8231 -119.2081 335° Northwest 432 497 38,000  Level Los Angeles Center
Sun 02:06:07 PM 35.9317 -119.2692 336° Northwest 432 497 38,000  Level Los Angeles Center
Sun 02:06:38 PM 35.9750 -119.2939 335° Northwest 433 498 38,000  Level Oakland Center
Sun 02:07:39 PM 36.1022 -119.3647 336° Northwest 424 488 38,000  Level Oakland Center
Sun 02:08:41 PM 36.2094 -119.4269 335° Northwest 426 490 38,000  Level Oakland Center
Sun 02:09:42 PM 36.3175 -119.4881 336° Northwest 428 493 38,000  Level Oakland Center
Sun 02:10:44 PM 36.4183 -119.5633 329° Northwest 425 489 38,000  Level Oakland Center
Sun 02:11:46 PM 36.5178 -119.6425 327° Northwest 426 490 38,000 -244 Level Oakland Center
Sun 02:12:47 PM 36.6186 -119.7200 328° Northwest 426 490 37,500 -732 Descending Oakland Center
Sun 02:13:49 PM 36.7183 -119.7972 328° Northwest 423 487 36,500 -1,016 Descending Oakland Center
Sun 02:14:51 PM 36.8367 -119.8900 328° Northwest 421 484 35,400 -1,024 Descending Oakland Center
Sun 02:15:52 PM 36.9386 -119.9683 328° Northwest 427 491 34,400 -976 Descending Oakland Center
Sun 02:16:54 PM 37.0400 -120.0478 328° Northwest 431 496 33,400 -968 Descending Oakland Center
Sun 02:17:56 PM 37.1364 -120.1228 328° Northwest 414 476 32,400 -976 Descending Oakland Center
Sun 02:18:57 PM 37.2314 -120.2000 327° Northwest 409 471 31,400 -976 Descending Oakland Center
Sun 02:19:59 PM 37.3278 -120.2750 328° Northwest 409 471 30,400 -968 Descending Oakland Center
Sun 02:21:01 PM 37.4217 -120.3497 328° Northwest 401 461 29,400 -1,659 Descending Oakland Center
Sun 02:22:02 PM 37.5228 -120.4511 322° Northwest 387 445 27,000 -2,195 Descending Oakland Center
Sun 02:23:04 PM 37.6056 -120.5311 323° Northwest 377 434 24,900 -2,032 Descending Oakland Center
Sun 02:24:06 PM 37.6844 -120.6114 321° Northwest 366 421 22,800 -1,951 Descending Oakland Center
Sun 02:25:07 PM 37.7622 -120.6906 321° Northwest 359 413 20,900 -1,854 Descending Oakland Center
Sun 02:26:09 PM 37.8381 -120.7661 322° Northwest 348 400 19,000 -1,694 Descending Oakland Center
Sun 02:27:11 PM 37.9114 -120.8394 322° Northwest 338 389 17,400 -1,659 Descending Oakland Center
Sun 02:28:12 PM 37.9819 -120.9111 321° Northwest 329 379 15,600 -1,756 Descending Oakland Center
Sun 02:29:14 PM 38.0511 -120.9822 321° Northwest 321 369 13,800 -1,887 Descending Oakland Center
Sun 02:30:16 PM 38.1231 -121.0767 314° West 309 356 11,700 -1,842 Descending Oakland Center
Sun 02:31:08 PM 38.1667 -121.1500 307° West 304 350 10,300 -953 Descending Northern Cal TRACON
Sun 02:32:03 PM 38.2167 -121.2167 314° West 294 338 10,000 -157 Descending Northern Cal TRACON
Sun 02:33:03 PM 38.2667 -121.3000 307° West 300 345 10,000  Level Northern Cal TRACON
Sun 02:34:03 PM 38.3333 -121.3833 316° Northwest 296 341 10,000  Level Northern Cal TRACON
Sun 02:35:03 PM 38.3833 -121.4500 314° West 297 342 10,000 -605 Level Northern Cal TRACON
Sun 02:36:02 PM 38.4333 -121.5333 307° West 283 326 8,800 -1,311 Descending Northern Cal TRACON
Sun 02:37:02 PM 38.5000 -121.5833 330° Northwest 281 323 7,400 -1,050 Descending Northern Cal TRACON
Sun 02:38:02 PM 38.5500 -121.6333 322° Northwest 251 289 6,700 -793 Descending Northern Cal TRACON
Sun 02:39:03 PM 38.6167 -121.6833 330° Northwest 228 262 5,800 -992 Descending Northern Cal TRACON
Sun 02:40:03 PM 38.6667 -121.7000 345° North 223 257 4,700 -1,361 Descending Northern Cal TRACON
Sun 02:41:02 PM 38.7333 -121.7000 360° North 223 257 3,100 -1,121 Descending Northern Cal TRACON
Sun 02:41:34 PM 38.7611 -121.7128 340° North 220 253 3,000 -255 Descending Oakland Center
Sun 02:42:36 PM 38.8097 -121.7131 360° North 204 235 2,700 -488 Descending Oakland Center
Sun 02:43:37 PM 38.8039 -121.6581 98° East 177 204 2,000 -390 Descending Oakland Center
Sun 02:44:39 PM 38.7861 -121.6075 114° Southeast 163 188 1,900 -581 Descending Oakland Center
Sun 02:45:41 PM 38.7467 -121.5992 171° South 151 174 800 -823 Descending Oakland Center
Sun 02:46:43 PM 38.7050 -121.6017 183° South 144 166 200 -581 Descending Oakland Center

Login

Don't have an account? Register now (free) for customized features, flight alerts, and more!